createdAt,value
2023-02-24T00:00:23.577Z,1.80
2023-02-24T00:01:23.476Z,1.90
2023-02-24T00:02:23.612Z,1.80
2023-02-24T00:03:25.532Z,1.50
2023-02-24T00:04:24.031Z,1.80
2023-02-24T00:05:23.717Z,1.50
2023-02-24T00:06:23.632Z,1.80
2023-02-24T00:07:23.597Z,1.50
2023-02-24T00:08:23.545Z,1.90
2023-02-24T00:09:23.580Z,2.20
2023-02-24T00:10:24.242Z,1.90
2023-02-24T00:11:23.417Z,1.50
2023-02-24T00:12:23.757Z,2.00
2023-02-24T00:13:23.508Z,1.70
2023-02-24T00:14:23.618Z,1.90
2023-02-24T00:15:23.357Z,1.40
2023-02-24T00:16:23.728Z,1.80
2023-02-24T00:17:23.554Z,1.80
2023-02-24T00:18:23.598Z,2.00
2023-02-24T00:19:23.630Z,2.00
2023-02-24T00:20:23.952Z,1.90
2023-02-24T00:21:23.452Z,1.70
2023-02-24T00:22:23.922Z,1.90
2023-02-24T00:23:24.309Z,2.30
2023-02-24T00:24:23.305Z,2.10
2023-02-24T00:25:23.268Z,1.70
2023-02-24T00:26:23.401Z,2.20
2023-02-24T00:27:23.269Z,1.90
2023-02-24T00:28:23.165Z,1.90
2023-02-24T00:29:23.588Z,1.70
2023-02-24T00:30:23.373Z,1.80
2023-02-24T00:31:23.541Z,1.80
2023-02-24T00:32:23.471Z,2.30
2023-02-24T00:33:23.101Z,2.00
2023-02-24T00:34:24.454Z,2.80
2023-02-24T00:35:23.005Z,2.10
2023-02-24T00:36:23.413Z,1.90
2023-02-24T00:37:23.028Z,1.90
2023-02-24T00:38:23.748Z,1.40
2023-02-24T00:39:24.041Z,2.00
2023-02-24T00:40:22.859Z,1.80
2023-02-24T00:41:23.130Z,1.70
2023-02-24T00:42:22.971Z,2.00
2023-02-24T00:43:22.885Z,1.70
2023-02-24T00:44:23.149Z,1.90
2023-02-24T00:45:23.019Z,1.80
2023-02-24T00:46:23.712Z,1.60
2023-02-24T00:47:23.024Z,1.70
2023-02-24T00:48:23.098Z,1.80
2023-02-24T00:49:23.184Z,1.80
2023-02-24T00:50:24.500Z,1.50
2023-02-24T00:51:23.016Z,1.80
2023-02-24T00:52:22.898Z,1.40
2023-02-24T00:53:22.882Z,1.90
2023-02-24T00:54:22.730Z,1.40
2023-02-24T00:55:23.087Z,2.00
2023-02-24T00:56:22.683Z,2.00
2023-02-24T00:57:23.338Z,1.60
2023-02-24T00:58:22.847Z,1.40
2023-02-24T00:59:23.922Z,1.40
2023-02-24T01:00:23.668Z,1.70
2023-02-24T01:01:23.264Z,1.90
2023-02-24T01:02:23.250Z,2.00
2023-02-24T01:03:22.674Z,1.80
2023-02-24T01:04:22.817Z,1.80
2023-02-24T01:05:22.592Z,1.60
2023-02-24T01:06:22.747Z,1.50
2023-02-24T01:07:22.793Z,1.60
2023-02-24T01:08:22.447Z,1.50
2023-02-24T01:09:23.262Z,2.40
2023-02-24T01:10:22.813Z,1.90
2023-02-24T01:11:23.280Z,2.00
2023-02-24T01:12:22.709Z,2.50
2023-02-24T01:13:23.035Z,2.00
2023-02-24T01:14:22.499Z,1.70
2023-02-24T01:15:22.546Z,1.60
2023-02-24T01:16:22.513Z,1.90
2023-02-24T01:17:22.515Z,1.60
2023-02-24T01:18:22.562Z,1.90
2023-02-24T01:19:22.422Z,1.50
2023-02-24T01:20:22.351Z,1.90
2023-02-24T01:21:22.628Z,1.40
2023-02-24T01:22:22.467Z,1.30
2023-02-24T01:23:22.505Z,1.70
2023-02-24T01:24:22.515Z,1.70
2023-02-24T01:25:22.622Z,1.80
2023-02-24T01:26:22.391Z,1.70
2023-02-24T01:27:22.313Z,1.70
2023-02-24T01:28:22.382Z,1.90
2023-02-24T01:29:22.420Z,1.60
2023-02-24T01:30:22.507Z,1.90
2023-02-24T01:31:24.804Z,1.80
2023-02-24T01:32:22.421Z,1.40
2023-02-24T01:33:22.509Z,1.50
2023-02-24T01:34:22.294Z,1.80
2023-02-24T01:35:22.310Z,1.40
2023-02-24T01:36:22.399Z,1.70
2023-02-24T01:37:22.148Z,1.70
2023-02-24T01:38:23.108Z,1.80
2023-02-24T01:39:22.122Z,1.80
2023-02-24T01:40:22.117Z,1.90
2023-02-24T01:41:22.459Z,1.80
2023-02-24T01:42:22.548Z,1.50
2023-02-24T01:43:22.282Z,1.70
2023-02-24T01:44:22.202Z,2.00
2023-02-24T01:45:22.332Z,1.70
2023-02-24T01:46:22.108Z,2.40
2023-02-24T01:47:22.084Z,2.40
2023-02-24T01:48:22.106Z,2.20
2023-02-24T01:49:21.999Z,1.60
2023-02-24T01:50:22.356Z,2.00
2023-02-24T01:51:23.440Z,2.40
2023-02-24T01:52:22.095Z,2.00
2023-02-24T01:53:21.983Z,2.10
2023-02-24T01:54:22.128Z,3.80
2023-02-24T01:55:22.081Z,10.10
2023-02-24T01:56:22.310Z,39.10
2023-02-24T01:57:22.089Z,52.50
2023-02-24T01:58:21.969Z,44.10
2023-02-24T01:59:22.771Z,21.20
2023-02-24T02:00:22.010Z,10.40
2023-02-24T02:01:22.195Z,8.10
2023-02-24T02:02:22.055Z,2.40
2023-02-24T02:03:21.870Z,2.00
2023-02-24T02:04:22.336Z,2.60
2023-02-24T02:05:22.211Z,1.80
2023-02-24T02:06:22.026Z,2.20
2023-02-24T02:07:21.707Z,2.20
2023-02-24T02:08:22.260Z,1.90
2023-02-24T02:09:21.820Z,2.10
2023-02-24T02:10:22.039Z,1.90
2023-02-24T02:11:22.329Z,2.10
2023-02-24T02:12:21.734Z,2.60
2023-02-24T02:13:21.851Z,2.20
2023-02-24T02:14:21.821Z,2.60
2023-02-24T02:15:21.872Z,3.20
2023-02-24T02:16:21.865Z,3.50
2023-02-24T02:17:21.632Z,3.30
2023-02-24T02:18:21.964Z,3.20
2023-02-24T02:19:21.898Z,2.50
2023-02-24T02:20:21.874Z,2.30
2023-02-24T02:21:21.938Z,2.20
2023-02-24T02:22:21.818Z,1.70
2023-02-24T02:23:21.728Z,1.80
2023-02-24T02:24:21.720Z,2.50
2023-02-24T02:25:21.631Z,2.00
2023-02-24T02:26:21.530Z,2.30
2023-02-24T02:27:21.730Z,2.10
2023-02-24T02:28:23.304Z,2.20
2023-02-24T02:29:21.717Z,2.50
2023-02-24T02:30:21.480Z,2.50
2023-02-24T02:31:21.871Z,2.60
2023-02-24T02:32:21.608Z,2.00
2023-02-24T02:33:21.412Z,2.20
2023-02-24T02:34:21.876Z,1.80
2023-02-24T02:35:22.177Z,2.00
2023-02-24T02:36:21.343Z,2.20
2023-02-24T02:37:21.375Z,1.80
2023-02-24T02:38:21.498Z,2.20
2023-02-24T02:39:21.424Z,2.80
2023-02-24T02:40:21.229Z,3.20
2023-02-24T02:41:21.568Z,2.50
2023-02-24T02:42:22.535Z,2.00
2023-02-24T02:43:21.319Z,2.40
2023-02-24T02:44:21.318Z,21.90
2023-02-24T02:45:21.456Z,9.00
2023-02-24T02:46:21.438Z,7.70
2023-02-24T02:47:21.500Z,6.20
2023-02-24T02:48:21.711Z,2.20
2023-02-24T02:49:21.395Z,2.30
2023-02-24T02:50:22.165Z,1.90
2023-02-24T02:51:21.475Z,1.60
2023-02-24T02:52:21.053Z,1.80
2023-02-24T02:53:21.055Z,1.70
2023-02-24T02:54:21.006Z,1.70
2023-02-24T02:55:21.214Z,2.30
2023-02-24T02:56:21.282Z,2.40
2023-02-24T02:57:21.058Z,2.00
2023-02-24T02:58:21.154Z,2.10
2023-02-24T02:59:21.105Z,2.10
2023-02-24T03:00:21.048Z,2.50
2023-02-24T03:01:22.796Z,2.90
2023-02-24T03:02:20.970Z,4.20
2023-02-24T03:03:21.060Z,6.60
2023-02-24T03:04:22.188Z,6.00
2023-02-24T03:05:22.155Z,3.90
2023-02-24T03:06:20.973Z,3.40
2023-02-24T03:07:21.010Z,3.30
2023-02-24T03:08:21.611Z,3.10
2023-02-24T03:09:20.960Z,3.30
2023-02-24T03:10:21.024Z,2.80
2023-02-24T03:11:21.277Z,3.00
2023-02-24T03:12:21.362Z,2.10
2023-02-24T03:13:21.113Z,2.20
2023-02-24T03:14:21.018Z,1.80
2023-02-24T03:15:20.785Z,2.30
2023-02-24T03:16:21.388Z,2.00
2023-02-24T03:17:20.725Z,2.30
2023-02-24T03:18:21.015Z,1.60
2023-02-24T03:19:20.861Z,2.10
2023-02-24T03:20:20.903Z,1.90
2023-02-24T03:21:21.186Z,2.10
2023-02-24T03:22:20.805Z,1.60
2023-02-24T03:23:21.100Z,2.00
2023-02-24T03:24:20.959Z,2.20
2023-02-24T03:25:21.070Z,1.80
2023-02-24T03:26:20.833Z,1.80
2023-02-24T03:27:20.878Z,1.70
2023-02-24T03:28:24.337Z,2.60
2023-02-24T03:29:20.536Z,1.90
2023-02-24T03:30:20.632Z,2.30
2023-02-24T03:31:21.326Z,2.30
2023-02-24T03:32:21.809Z,1.90
2023-02-24T03:33:20.613Z,2.10
2023-02-24T03:34:20.596Z,1.70
2023-02-24T03:35:20.928Z,1.80
2023-02-24T03:36:26.123Z,2.00
2023-02-24T03:37:21.455Z,2.20
2023-02-24T03:38:21.082Z,2.00
2023-02-24T03:39:20.971Z,2.00
2023-02-24T03:40:20.568Z,1.60
2023-02-24T03:41:20.952Z,2.10
2023-02-24T03:42:22.962Z,1.90
2023-02-24T03:43:20.812Z,2.20
2023-02-24T03:44:21.585Z,2.00
2023-02-24T03:45:20.672Z,1.30
2023-02-24T03:46:21.467Z,1.60
2023-02-24T03:47:20.488Z,2.10
2023-02-24T03:48:20.634Z,1.80
2023-02-24T03:49:20.484Z,2.20
2023-02-24T03:50:20.559Z,1.50
2023-02-24T03:51:21.477Z,1.50
2023-02-24T03:52:20.756Z,1.30
2023-02-24T03:53:21.389Z,1.90
2023-02-24T03:54:21.473Z,1.70
2023-02-24T03:55:20.432Z,1.80
2023-02-24T03:56:20.604Z,1.80
2023-02-24T03:57:20.593Z,1.40
2023-02-24T03:58:20.776Z,1.90
2023-02-24T03:59:20.832Z,1.60
2023-02-24T04:00:20.930Z,1.40
2023-02-24T04:01:20.623Z,1.60
2023-02-24T04:02:20.412Z,1.50
2023-02-24T04:03:20.681Z,1.90
2023-02-24T04:04:20.538Z,1.90
2023-02-24T04:05:20.190Z,2.20
2023-02-24T04:06:20.175Z,1.40
2023-02-24T04:07:20.339Z,1.40
2023-02-24T04:08:20.332Z,1.60
2023-02-24T04:09:20.248Z,3.50
2023-02-24T04:10:20.373Z,8.80
2023-02-24T04:11:20.409Z,6.90
2023-02-24T04:12:20.494Z,4.20
2023-02-24T04:13:20.014Z,1.50
2023-02-24T04:14:20.345Z,2.30
2023-02-24T04:15:20.279Z,2.00
2023-02-24T04:16:20.705Z,1.30
2023-02-24T04:17:20.649Z,1.90
2023-02-24T04:18:20.187Z,1.80
2023-02-24T04:19:20.056Z,1.80
2023-02-24T04:20:23.012Z,1.90
2023-02-24T04:21:20.184Z,1.80
2023-02-24T04:22:20.161Z,1.70
2023-02-24T04:23:27.134Z,1.50
2023-02-24T04:24:21.307Z,2.00
2023-02-24T04:25:20.467Z,1.70
2023-02-24T04:26:20.179Z,1.40
2023-02-24T04:27:20.056Z,1.30
2023-02-24T04:28:22.255Z,1.70
2023-02-24T04:29:19.843Z,1.60
2023-02-24T04:31:57.455Z,1.90
2023-02-24T04:32:56.916Z,1.70
2023-02-24T04:33:56.164Z,1.50
2023-02-24T04:34:55.854Z,1.40
2023-02-24T04:35:55.360Z,1.90
2023-02-24T04:36:55.537Z,2.30
2023-02-24T04:37:55.399Z,2.20
2023-02-24T04:38:55.668Z,1.70
2023-02-24T04:39:55.338Z,1.30
2023-02-24T04:40:55.430Z,1.50
2023-02-24T04:41:55.387Z,1.90
2023-02-24T04:42:55.260Z,1.60
2023-02-24T04:43:57.191Z,1.40
2023-02-24T04:44:55.431Z,1.80
2023-02-24T04:45:55.285Z,2.40
2023-02-24T04:46:55.382Z,1.70
2023-02-24T04:47:55.579Z,1.80
2023-02-24T04:48:55.273Z,1.50
2023-02-24T04:49:55.407Z,1.70
2023-02-24T04:50:55.768Z,1.80
2023-02-24T04:51:55.241Z,1.80
2023-02-24T04:52:57.448Z,1.60
2023-02-24T04:53:56.330Z,1.40
2023-02-24T04:54:55.205Z,1.60
2023-02-24T04:55:55.324Z,1.80
2023-02-24T04:56:57.299Z,1.60
2023-02-24T04:57:57.505Z,1.70
2023-02-24T04:58:55.134Z,1.50
2023-02-24T04:59:54.963Z,1.40
2023-02-24T05:00:55.126Z,1.80
2023-02-24T05:01:56.045Z,1.90
2023-02-24T05:02:55.505Z,1.80
2023-02-24T05:03:56.887Z,1.40
2023-02-24T05:04:55.398Z,1.50
2023-02-24T05:05:55.452Z,1.90
2023-02-24T05:06:55.124Z,2.00
2023-02-24T05:07:55.019Z,2.00
2023-02-24T05:08:55.414Z,1.80
2023-02-24T05:09:55.030Z,1.90
2023-02-24T05:10:55.041Z,1.50
2023-02-24T05:11:55.183Z,1.70
2023-02-24T05:12:55.663Z,2.30
2023-02-24T05:13:55.225Z,1.50
2023-02-24T05:14:55.569Z,2.00
2023-02-24T05:15:54.933Z,2.00
2023-02-24T05:16:55.740Z,1.70
2023-02-24T05:17:55.548Z,2.10
2023-02-24T05:18:54.776Z,1.80
2023-02-24T05:19:55.037Z,1.60
2023-02-24T05:20:55.042Z,1.80
2023-02-24T05:21:55.719Z,1.60
2023-02-24T05:22:55.425Z,1.60
2023-02-24T05:23:54.940Z,1.60
2023-02-24T05:24:54.809Z,1.80
2023-02-24T05:25:56.246Z,1.90
2023-02-24T05:26:54.878Z,1.80
2023-02-24T05:27:54.816Z,2.10
2023-02-24T05:28:54.803Z,1.90
2023-02-24T05:29:55.492Z,1.80
2023-02-24T05:30:58.212Z,5.20
2023-02-24T05:31:55.695Z,2.90
2023-02-24T05:32:54.548Z,5.30
2023-02-24T05:33:54.987Z,3.40
2023-02-24T05:34:54.585Z,2.50
2023-02-24T05:35:55.040Z,1.90
2023-02-24T05:36:54.597Z,2.00
2023-02-24T05:37:58.452Z,1.80
2023-02-24T05:38:56.401Z,1.60
2023-02-24T05:39:55.115Z,1.80
2023-02-24T05:40:55.997Z,1.90
2023-02-24T05:41:55.019Z,1.60
2023-02-24T05:42:55.133Z,1.80
2023-02-24T05:43:54.879Z,2.30
2023-02-24T05:44:54.678Z,1.70
2023-02-24T05:45:54.738Z,1.70
2023-02-24T05:46:54.590Z,2.10
2023-02-24T05:48:02.674Z,1.60
2023-02-24T05:48:55.829Z,1.80
2023-02-24T05:49:55.099Z,2.30
2023-02-24T05:50:54.468Z,2.00
2023-02-24T05:51:55.180Z,1.90
2023-02-24T05:52:54.873Z,1.90
2023-02-24T05:53:55.270Z,1.70
2023-02-24T05:54:54.380Z,1.60
2023-02-24T05:55:55.383Z,2.10
2023-02-24T05:56:54.843Z,1.80
2023-02-24T05:57:54.421Z,1.80
2023-02-24T05:58:54.868Z,2.00
2023-02-24T05:59:54.451Z,2.00
2023-02-24T06:00:54.637Z,1.70
2023-02-24T06:01:54.257Z,2.50
2023-02-24T06:02:54.368Z,1.90
2023-02-24T06:03:55.632Z,2.80
2023-02-24T06:04:54.384Z,2.10
2023-02-24T06:05:54.226Z,2.30
2023-02-24T06:06:55.277Z,1.70
2023-02-24T06:07:54.605Z,2.00
2023-02-24T06:08:54.635Z,2.00
2023-02-24T06:09:54.304Z,2.10
2023-02-24T06:10:54.322Z,2.30
2023-02-24T06:11:54.750Z,1.80
2023-02-24T06:12:59.159Z,2.40
2023-02-24T06:13:54.069Z,1.90
2023-02-24T06:14:54.280Z,2.00
2023-02-24T06:15:54.557Z,2.30
2023-02-24T06:16:55.154Z,2.00
2023-02-24T06:17:55.687Z,1.90
2023-02-24T06:18:54.244Z,2.30
2023-02-24T06:19:54.653Z,2.30
2023-02-24T06:20:54.016Z,2.10
2023-02-24T06:21:54.107Z,1.40
2023-02-24T06:22:54.863Z,1.90
2023-02-24T06:23:54.438Z,2.00
2023-02-24T06:24:54.130Z,1.90
2023-02-24T06:25:54.858Z,1.80
2023-02-24T06:26:55.400Z,1.60
2023-02-24T06:27:54.386Z,1.90
2023-02-24T06:28:54.101Z,2.30
2023-02-24T06:29:55.111Z,1.80
2023-02-24T06:30:54.749Z,2.30
2023-02-24T06:31:54.400Z,1.80
2023-02-24T06:32:54.262Z,2.20
2023-02-24T06:33:54.538Z,2.10
2023-02-24T06:34:54.052Z,2.10
2023-02-24T06:35:54.726Z,1.80
2023-02-24T06:36:55.034Z,2.40
2023-02-24T06:37:56.594Z,3.00
2023-02-24T06:38:53.755Z,13.60
2023-02-24T06:39:56.064Z,16.60
2023-02-24T06:40:54.767Z,5.90
2023-02-24T06:41:53.698Z,3.00
2023-02-24T06:42:53.695Z,2.30
2023-02-24T06:43:54.004Z,2.90
2023-02-24T06:44:53.686Z,2.10
2023-02-24T06:45:53.989Z,2.20
2023-02-24T06:46:53.677Z,2.80
2023-02-24T06:47:54.275Z,2.40
2023-02-24T06:50:20.730Z,2.10
2023-02-24T06:51:17.329Z,2.00
2023-02-24T06:52:17.671Z,2.50
2023-02-24T06:53:16.684Z,2.70
2023-02-24T06:54:17.151Z,2.80
2023-02-24T06:55:16.912Z,2.80
2023-02-24T06:56:16.652Z,2.80
2023-02-24T06:57:17.224Z,2.70
2023-02-24T06:58:16.612Z,3.00
2023-02-24T06:59:15.476Z,2.90
2023-02-24T07:00:15.668Z,2.40
2023-02-24T07:01:16.180Z,3.20
2023-02-24T07:02:16.587Z,3.30
2023-02-24T07:03:16.992Z,3.20
2023-02-24T07:04:15.465Z,2.50
2023-02-24T07:05:15.177Z,3.30
2023-02-24T07:06:15.155Z,3.50
2023-02-24T07:07:15.735Z,3.50
2023-02-24T07:08:16.177Z,3.40
2023-02-24T07:09:15.114Z,3.10
2023-02-24T07:10:15.194Z,3.30
2023-02-24T07:11:15.254Z,3.60
2023-02-24T07:12:15.211Z,4.00
2023-02-24T07:13:15.210Z,3.90
2023-02-24T07:14:15.162Z,4.60
2023-02-24T07:15:15.969Z,3.60
2023-02-24T07:16:15.101Z,4.10
2023-02-24T07:17:15.042Z,4.30
2023-02-24T07:18:15.168Z,3.90
2023-02-24T07:19:14.987Z,4.10
2023-02-24T07:20:15.079Z,4.20
2023-02-24T07:21:15.843Z,4.80
2023-02-24T07:22:18.007Z,4.80
2023-02-24T07:23:15.321Z,4.80
2023-02-24T07:24:17.170Z,5.00
2023-02-24T07:25:15.500Z,6.30
2023-02-24T07:26:17.215Z,5.30
2023-02-24T07:27:16.103Z,6.00
2023-02-24T07:28:15.634Z,6.00
2023-02-24T07:29:14.979Z,5.70
2023-02-24T07:30:15.257Z,5.90
2023-02-24T07:31:15.055Z,5.90
2023-02-24T07:32:15.298Z,6.00
2023-02-24T07:33:15.134Z,6.60
2023-02-24T07:34:15.286Z,6.40
2023-02-24T07:35:15.043Z,9.20
2023-02-24T07:36:17.096Z,7.00
2023-02-24T07:37:15.466Z,7.20
2023-02-24T07:38:15.714Z,6.90
2023-02-24T07:39:15.806Z,5.50
2023-02-24T07:40:14.820Z,6.60
2023-02-24T07:41:14.734Z,6.50
2023-02-24T07:42:15.102Z,8.20
2023-02-24T07:43:15.028Z,7.20
2023-02-24T07:44:15.348Z,6.20
2023-02-24T07:45:15.490Z,7.40
2023-02-24T07:46:17.026Z,7.50
2023-02-24T07:47:16.318Z,7.00
2023-02-24T07:48:14.962Z,7.70
2023-02-24T07:49:15.649Z,7.80
2023-02-24T07:50:14.507Z,7.20
2023-02-24T07:51:14.591Z,6.80
2023-02-24T07:52:16.298Z,8.30
2023-02-24T07:53:14.597Z,8.90
2023-02-24T07:54:15.293Z,7.20
2023-02-24T07:55:15.064Z,8.00
2023-02-24T07:56:14.424Z,5.70
2023-02-24T07:57:14.851Z,8.00
2023-02-24T07:58:14.554Z,8.80
2023-02-24T07:59:14.340Z,8.50
2023-02-24T08:00:14.679Z,9.40
2023-02-24T08:01:14.564Z,9.40
2023-02-24T08:02:16.552Z,7.30
2023-02-24T08:03:14.474Z,7.70
2023-02-24T08:04:14.529Z,8.40
2023-02-24T08:05:15.035Z,9.00
2023-02-24T08:06:14.572Z,7.90
2023-02-24T08:07:15.113Z,7.20
2023-02-24T08:08:14.108Z,8.60
2023-02-24T08:09:14.372Z,9.30
2023-02-24T08:10:14.594Z,8.50
2023-02-24T08:11:14.925Z,7.30
2023-02-24T08:12:15.015Z,8.60
2023-02-24T08:13:17.599Z,12.20
2023-02-24T08:14:14.023Z,8.40
2023-02-24T08:15:14.503Z,8.90
2023-02-24T08:16:14.611Z,8.80
2023-02-24T08:17:14.530Z,6.70
2023-02-24T08:18:14.055Z,10.40
2023-02-24T08:19:14.046Z,9.50
2023-02-24T08:20:14.399Z,8.10
2023-02-24T08:21:14.795Z,7.30
2023-02-24T08:22:13.874Z,10.20
2023-02-24T08:23:13.902Z,7.20
2023-02-24T08:24:14.014Z,8.80
2023-02-24T08:25:13.898Z,8.10
2023-02-24T08:26:13.891Z,7.10
2023-02-24T08:27:13.894Z,8.20
2023-02-24T08:28:13.807Z,9.50
2023-02-24T08:29:13.827Z,9.10
2023-02-24T08:30:13.929Z,9.90
2023-02-24T08:31:15.593Z,8.80
2023-02-24T08:32:14.119Z,6.30
2023-02-24T08:33:14.034Z,8.50
2023-02-24T08:34:16.374Z,8.50
2023-02-24T08:35:16.869Z,8.50
2023-02-24T08:36:14.303Z,8.10
2023-02-24T08:37:15.361Z,10.10
2023-02-24T08:38:14.162Z,8.70
2023-02-24T08:39:13.847Z,8.80
2023-02-24T08:40:14.749Z,8.50
2023-02-24T08:41:14.285Z,7.80
2023-02-24T08:42:15.593Z,6.90
2023-02-24T08:43:14.470Z,9.00
2023-02-24T08:46:20.752Z,7.80
2023-02-24T08:47:16.235Z,8.10
2023-02-24T08:52:49.622Z,10.60
2023-02-24T08:53:13.728Z,11.10
2023-02-24T08:54:14.501Z,8.10
2023-02-24T08:55:12.782Z,6.60
2023-02-24T08:56:15.372Z,7.10
2023-02-24T08:57:12.080Z,6.30
2023-02-24T08:58:12.055Z,7.40
2023-02-24T08:59:12.100Z,6.60
2023-02-24T09:00:12.005Z,8.00
2023-02-24T09:01:12.644Z,9.30
2023-02-24T09:02:12.041Z,8.10
2023-02-24T09:03:13.439Z,7.00
2023-02-24T09:04:12.142Z,6.80
2023-02-24T09:05:14.501Z,7.40
2023-02-24T09:06:12.035Z,10.10
2023-02-24T09:07:12.222Z,7.90
2023-02-24T09:08:11.854Z,7.90
2023-02-24T09:09:13.053Z,8.60
2023-02-24T09:10:11.923Z,7.70
2023-02-24T09:11:12.788Z,10.30
2023-02-24T09:12:11.897Z,7.80
2023-02-24T09:13:11.796Z,8.40
2023-02-24T09:14:24.711Z,8.70
2023-02-24T09:15:12.848Z,10.10
2023-02-24T09:16:12.772Z,10.30
2023-02-24T09:17:12.026Z,7.70
2023-02-24T09:18:11.842Z,9.70
2023-02-24T09:19:11.726Z,8.20
2023-02-24T09:20:11.719Z,9.60
2023-02-24T09:21:13.869Z,10.20
2023-02-24T09:22:34.752Z,9.40
2023-02-24T09:23:13.516Z,8.60
2023-02-24T09:24:16.884Z,10.10
2023-02-24T09:25:13.410Z,10.70
2023-02-24T09:26:12.620Z,11.10
2023-02-24T09:27:14.500Z,11.40
2023-02-24T09:28:13.805Z,9.20
2023-02-24T09:29:16.021Z,10.50
2023-02-24T09:30:13.233Z,10.80
2023-02-24T09:31:13.518Z,12.20
2023-02-24T09:32:13.240Z,11.50
2023-02-24T09:33:12.632Z,12.40
2023-02-24T09:34:18.196Z,9.60
2023-02-24T09:35:14.647Z,10.10
2023-02-24T09:36:12.400Z,12.10
2023-02-24T09:37:13.116Z,14.20
2023-02-24T09:38:12.575Z,11.20
2023-02-24T09:39:14.246Z,14.10
2023-02-24T09:40:13.599Z,13.20
2023-02-24T09:41:28.868Z,11.00
2023-02-24T09:42:15.803Z,12.30
2023-02-24T09:43:14.180Z,11.40
2023-02-24T09:44:16.071Z,9.80
2023-02-24T09:45:14.477Z,10.20
2023-02-24T09:46:13.428Z,10.20
2023-02-24T09:47:13.093Z,10.70
2023-02-24T09:48:12.922Z,11.30
2023-02-24T09:49:12.250Z,13.40
2023-02-24T09:50:14.117Z,12.30
2023-02-24T09:51:14.853Z,10.50
2023-02-24T09:52:13.183Z,9.60
2023-02-24T09:53:12.607Z,12.30
2023-02-24T09:54:12.758Z,10.30
2023-02-24T09:55:15.722Z,11.60
2023-02-24T09:56:33.337Z,15.00
2023-02-24T09:57:12.007Z,12.50
2023-02-24T09:58:12.950Z,13.40
2023-02-24T09:59:11.651Z,9.80
2023-02-24T10:00:12.770Z,8.60
2023-02-24T10:03:14.195Z,10.50
2023-02-24T10:04:08.806Z,10.60
2023-02-24T10:05:07.759Z,10.30
2023-02-24T10:06:04.173Z,9.00
2023-02-24T10:07:07.298Z,10.90
2023-02-24T10:08:03.469Z,8.80
2023-02-24T10:09:04.871Z,8.60
2023-02-24T10:10:07.672Z,9.60
2023-02-24T10:11:05.289Z,9.50
2023-02-24T10:12:04.669Z,10.80
2023-02-24T10:13:03.360Z,11.20
2023-02-24T10:14:05.694Z,12.80
2023-02-24T10:15:05.825Z,10.80
2023-02-24T10:16:07.038Z,17.60
2023-02-24T10:17:03.407Z,10.50
2023-02-24T10:18:06.850Z,8.00
2023-02-24T10:19:05.103Z,9.00
2023-02-24T10:20:04.863Z,11.80
2023-02-24T10:21:06.206Z,8.20
2023-02-24T10:23:54.822Z,8.60
2023-02-24T10:24:52.696Z,7.80
2023-02-24T10:25:52.652Z,8.80
2023-02-24T10:27:00.806Z,10.50
2023-02-24T10:27:56.468Z,11.20
2023-02-24T10:35:16.400Z,7.90
2023-02-24T10:36:11.505Z,7.90
2023-02-24T10:37:19.356Z,6.90
2023-02-24T10:38:11.912Z,7.40
2023-02-24T10:39:12.370Z,8.40
2023-02-24T10:40:11.050Z,6.90
2023-02-24T10:41:15.343Z,6.70
2023-02-24T10:42:11.206Z,7.70
2023-02-24T10:43:13.404Z,6.70
2023-02-24T10:44:10.693Z,7.20
2023-02-24T10:45:17.164Z,7.30
2023-02-24T10:46:13.470Z,6.20
2023-02-24T10:47:13.159Z,6.20
2023-02-24T10:48:12.358Z,6.20
2023-02-24T10:49:10.923Z,6.90
2023-02-24T10:50:13.195Z,6.60
2023-02-24T10:51:12.061Z,6.60
2023-02-24T10:52:10.836Z,7.00
2023-02-24T10:53:10.999Z,8.30
2023-02-24T10:54:11.798Z,7.60
2023-02-24T10:55:10.810Z,8.10
2023-02-24T10:56:10.795Z,7.30
2023-02-24T10:57:11.894Z,6.60
2023-02-24T10:58:12.831Z,6.90
2023-02-24T10:59:11.759Z,8.60
2023-02-24T11:00:10.848Z,6.70
2023-02-24T11:01:10.183Z,7.30
2023-02-24T11:02:12.032Z,6.60
2023-02-24T11:03:10.005Z,8.60
2023-02-24T11:04:12.979Z,8.50
2023-02-24T11:05:13.426Z,7.90
2023-02-24T11:06:14.076Z,9.10
2023-02-24T11:07:31.850Z,9.90
2023-02-24T11:08:11.877Z,10.00
2023-02-24T11:09:10.584Z,8.90
2023-02-24T11:10:11.234Z,11.40
2023-02-24T11:13:04.204Z,12.00
2023-02-24T11:13:56.980Z,12.00
2023-02-24T11:15:01.687Z,10.40
2023-02-24T11:15:55.358Z,11.10
2023-02-24T11:16:55.560Z,10.00
2023-02-24T11:17:55.987Z,9.80
2023-02-24T11:18:56.614Z,12.10
2023-02-24T11:19:56.404Z,11.50
2023-02-24T11:20:54.988Z,9.90
2023-02-24T11:21:55.038Z,12.60
2023-02-24T11:22:55.593Z,13.20
2023-02-24T11:23:55.037Z,10.50
2023-02-24T11:24:55.906Z,10.30
2023-02-24T11:25:54.798Z,13.00
2023-02-24T11:26:55.082Z,10.50
2023-02-24T11:29:56.361Z,11.80
2023-02-24T11:30:56.785Z,11.50
2023-02-24T11:31:58.909Z,10.60
2023-02-24T11:32:56.138Z,10.60
2023-02-24T11:33:58.208Z,11.00
2023-02-24T11:34:55.894Z,12.50
2023-02-24T11:35:56.830Z,13.30
2023-02-24T11:36:56.126Z,12.00
2023-02-24T11:37:56.896Z,11.10
2023-02-24T11:39:05.524Z,14.70
2023-02-24T11:39:57.344Z,11.60
2023-02-24T11:40:58.709Z,11.10
2023-02-24T11:41:55.779Z,12.00
2023-02-24T11:42:56.142Z,11.70
2023-02-24T11:43:57.549Z,12.70
2023-02-24T11:44:57.755Z,9.60
2023-02-24T11:45:57.213Z,9.70
2023-02-24T11:46:56.723Z,10.40
2023-02-24T11:47:56.260Z,10.10
2023-02-24T11:48:56.387Z,10.10
2023-02-24T11:49:55.942Z,10.20
2023-02-24T11:50:55.861Z,10.00
2023-02-24T11:51:56.471Z,13.30
2023-02-24T11:52:56.731Z,12.20
2023-02-24T11:53:56.358Z,12.00
2023-02-24T11:54:56.618Z,11.40
2023-02-24T11:55:56.573Z,11.00
2023-02-24T11:56:56.283Z,10.20
2023-02-24T11:57:55.548Z,9.70
2023-02-24T11:58:56.220Z,9.80
2023-02-24T12:00:14.311Z,9.80
2023-02-24T12:00:56.724Z,9.90
2023-02-24T12:01:58.412Z,9.90
2023-02-24T12:02:55.834Z,9.70
2023-02-24T12:03:55.587Z,9.40
2023-02-24T12:04:58.023Z,10.40
2023-02-24T12:05:55.894Z,11.20
2023-02-24T12:06:56.375Z,10.00
2023-02-24T12:07:56.568Z,9.90
2023-02-24T12:08:55.711Z,9.80
2023-02-24T12:10:07.051Z,10.30
2023-02-24T12:10:57.644Z,11.10
2023-02-24T12:11:56.540Z,11.10
2023-02-24T12:12:59.527Z,11.10
2023-02-24T12:13:55.439Z,9.50
2023-02-24T12:14:56.106Z,11.00
2023-02-24T12:15:55.483Z,9.90
2023-02-24T12:16:55.924Z,10.80
2023-02-24T12:17:56.242Z,12.80
2023-02-24T12:18:55.450Z,11.10
2023-02-24T12:19:56.408Z,11.30
2023-02-24T12:20:55.833Z,10.50
2023-02-24T12:21:55.594Z,10.20
2023-02-24T12:22:56.716Z,10.60
2023-02-24T12:23:56.235Z,12.20
2023-02-24T12:24:55.782Z,12.70
2023-02-24T12:27:43.769Z,10.00
2023-02-24T12:28:44.508Z,10.20
2023-02-24T12:29:41.907Z,10.30
2023-02-24T12:32:02.562Z,9.50
2023-02-24T12:33:04.420Z,9.50
2023-02-24T12:34:01.567Z,9.90
2023-02-24T12:35:01.880Z,9.50
2023-02-24T12:36:01.527Z,9.70
2023-02-24T12:37:02.462Z,9.70
2023-02-24T12:38:01.686Z,10.30
2023-02-24T12:39:03.717Z,10.90
2023-02-24T12:40:02.423Z,11.30
2023-02-24T12:41:04.152Z,10.90
2023-02-24T12:42:03.635Z,11.80
2023-02-24T12:43:02.727Z,10.40
2023-02-24T12:44:01.322Z,11.40
2023-02-24T12:45:03.505Z,10.50
2023-02-24T12:46:03.946Z,10.60
2023-02-24T12:47:02.029Z,13.50
2023-02-24T12:48:01.250Z,11.70
2023-02-24T12:49:01.218Z,11.80
2023-02-24T12:50:02.573Z,13.20
2023-02-24T12:51:01.998Z,11.70
2023-02-24T12:52:01.362Z,12.10
2023-02-24T12:53:02.068Z,11.60
2023-02-24T12:54:01.647Z,11.60
2023-02-24T12:55:01.949Z,10.80
2023-02-24T12:56:02.578Z,13.90
2023-02-24T12:57:02.365Z,10.90
2023-02-24T12:58:01.240Z,13.20
2023-02-24T13:00:18.696Z,12.10
2023-02-24T13:01:12.773Z,12.00
2023-02-24T13:02:12.665Z,10.80
2023-02-24T13:03:14.901Z,12.30
2023-02-24T13:04:12.988Z,11.00
2023-02-24T13:05:14.398Z,13.60
2023-02-24T13:06:13.213Z,12.30
2023-02-24T13:07:15.007Z,14.70
2023-02-24T13:08:14.090Z,11.70
2023-02-24T13:09:13.041Z,11.20
2023-02-24T13:10:12.539Z,10.70
2023-02-24T13:11:13.433Z,10.70
2023-02-24T13:12:13.610Z,10.30
2023-02-24T13:13:14.898Z,10.80
2023-02-24T13:14:12.940Z,11.20
2023-02-24T13:15:15.454Z,9.60
2023-02-24T13:16:13.168Z,10.70
2023-02-24T13:17:13.860Z,10.50
2023-02-24T13:18:13.227Z,10.40
2023-02-24T13:19:13.965Z,10.40
2023-02-24T13:20:16.342Z,10.90
2023-02-24T13:21:13.671Z,10.40
2023-02-24T13:22:13.712Z,10.00
2023-02-24T13:23:13.432Z,10.30
2023-02-24T13:24:13.340Z,11.70
2023-02-24T13:25:13.208Z,10.30
2023-02-24T13:26:12.448Z,10.70
2023-02-24T13:27:14.599Z,11.40
2023-02-24T13:28:12.809Z,11.00
2023-02-24T13:29:12.416Z,10.80
2023-02-24T13:30:13.774Z,10.80
2023-02-24T13:31:12.394Z,9.80
2023-02-24T13:32:13.187Z,9.40
2023-02-24T13:33:12.457Z,9.80
2023-02-24T13:34:12.158Z,10.20
2023-02-24T13:35:13.241Z,8.90
2023-02-24T13:36:14.875Z,8.90
2023-02-24T13:37:13.509Z,9.30
2023-02-24T13:38:14.021Z,8.00
2023-02-24T13:39:12.874Z,8.30